Etusivu
METAR-TAF:

METAR-TAF

Lentoasemat :

Nouakchott, Mauritania

Nouakchottin kansainvälinen lentoasema

Leveyspiiri: 18-18-36N, Pituuspiiri: 015-58-11W, korkeus merenpinnasta: 3 m

Tämänhetkinen sää

Tämä raportti tehtiin 22 minuuttia sitten, kello 21.30 UTC
Tuuli 11 kn pohjoisen/luoteesta
Lämpötila 19°C
Kosteus 78%
Ilmanpaine 1014 hPa
Näkyvyys 10 km tai enemmän
ei pilviä alle 1500 m:ssä eikä cumulonimbus-pilviä

METAR: GQNO 122130Z 33011KT CAVOK 19/15 Q1014 NOSIG

Aika: 21:52 (21:52 UTC)

Sääennuste

Tämä raportti tehtiin 4 tuntia ja 52 minuuttia sitten, kello 17.00 UTC
Ennuste voimassa 12. päivästä klo 18 UTC - 13. päivään klo 24 UTC
Tuuli 12 kn pohjoisen/luoteesta
Näkyvyys: 8000 m
Ajoittain
13. päivästä klo 09 UTC - 13. päivään klo 15 UTC
Tuuli 13 kn koillisesta

TAF: GQNO 121700Z 1218/1324 34012KT 8000 NSC TEMPO 1309/1315 05013KT

Säähavainnot ja -ennusteet yli 4000 lentoasemalta (METAR- ja TAF-raportit).

Käytössä olevat sääasemat on merkitty karttaan keltaisilla ja punaisilla pisteillä.

Aseta hiiri pisteen päälle nähdäksesi sääaseman nimen.

Klikkaa sitten nähdäksesi säähavainnot ja -ennusteet.

Kartan vaihtaminen: klikkaa mustalla rastilla varustettuja vihreitä pisteitä, niin voit zoomata sisään; viivalla varustettua vihreää pistettä, niin voit zoomata ulos tai vihreitä nuolia, niin pääset viereisille kartoille.


METAR-TAF: